Catholic Point, Arkansas
Current Conditions -  °F | °C
As of 10:53 AM on Friday 24 Oct 2014 (Local Time) from KRUE Reporting Station
Clear Clear  
Wind Chill: 63°   Ceiling: Unl
Heat Index: 63°   Visibility: 10mi
Dew Point: 53°   Wind: 0mph
Humidity: 70%   Direction: NA
Pressure: 30.17"   Gusts: NA
Location:  35.4084°N, 92.5669°W
Report Text: KRUE 241553Z AUTO 00000KT 10SM CLR 17/12 A3017 RMK AO2 SLP211 T01720117
Loading
Personal Weather Stations






























Interactive Weather Map
Tropical Storm Tracking
New forecast layout! Learn more

10-Day Weather Forecast

Advertisements
Track Severe Weather on mobile